Accueil
METAR-TAF:

METAR-TAF

Aéroports :

Aéroport international de Nouakchott-Oumtounsy

Nouakchott, Mauritanie

latitude: 18-18-36N, longitude: 015-58-11W, altitude: 3 m

Observation

Le bulletin a été fait il y a 44 minutes, à 19:00 UTC
Vent 5 kt de ouest/nord-ouest
Température 23°C
Humidité 57%
Pression 1013 hPa
Visibilité 10 km ou plus
pas de nuages en-dessous de 1500 mètres et pas de cumulonimbus.

METAR: GQNO 211900Z 29005KT CAVOK 23/14 Q1013 NOSIG

Heure: 19:44 (19:44 UTC)

Prévision

Le bulletin a été fait il y a 2 heures et 44 minutes, à 17:00 UTC
Prévision valable du 21 à 18 UTC au 22 à 24 UTC
Vent 10 kt de nord/nord-ouest
Visibilité: 8000 m
Probabilité 30% :
Temporairement
du 22 à 09 UTC au 22 à 12 UTC
Vent 8 kt de nord/nord-est

TAF: GQNO 211700Z 2118/2224 33010KT 8000 NSC PROB30 TEMPO 2209/2212 03008KT

Observations et prévisions météorologiques de plus de 4000 aéroports (messages METAR et TAF).

Les stations disponibles sont représentées par des disques jaunes et rouges sur la carte.

Passer la souris dessus pour voir le nom de la station.

Cliquer dessus pour voir les observations et prévisions météorologiques.

Pour changer de carte: cliquez sur les boutons verts avec une croix noire pour zoomer, sur le bouton vert avec un tiret pour effectuer un zoom arrière, ou sur les flèches vertes pour les cartes adjacentes.


METAR-TAF: